KHXD

Details ICAO KHXD (HXD)
Name Hilton Head
Region United States
Timezone America/New_York (UTC-5.0)
Plans Departing 19
Arriving 41
Stats Elevation 19 ft / 6 m (AMSL)
Location 32.224361° -80.697475°
Runways 1
Magnetic Variation 7.366° W
Sunrise 2017-12-16 12:18:34 UTC / 2017-12-16 07:18:34 Local
Sunset 2017-12-16 22:21:15 UTC / 2017-12-16 17:21:15 Local
Advertisement - Login to hide

Runways

ID Width Length Bearing (true) Bearing (mag) Surface Threshold Offset Overrun Length
03 98 ft / 30 m 4,309 ft / 1,313 m 25.97° 33.34° Asphalt 299 ft / 91 m 59 ft / 18 m
21 98 ft / 30 m 4,309 ft / 1,313 m 205.97° 213.34° Asphalt 272 ft / 83 m 75 ft / 23 m

Approach Navaids

Runway Type Ident Frequency Range Bearing (true) Bearing (mag) Slope Elevation
21 Localiser IHXD 111.30 MHz 18 nm / 33 km 205.97° 213.33° - 19 ft / 6 m (AMSL)
21 DME IHXD 111.30 MHz 18 nm / 33 km - - - 19 ft / 6 m (AMSL)

Map

Weather


0- 5 10 15 20 25 30 35+ Temperature / ° C

Clouds and Precipitation
Forecast for 2017-12-16 18:00 UTC. Updated 10 minutes ago

Ground ~20,000 ft ~40,000 ft Winds

METAR

KHXD 161650Z 36004KT 10SM SKC 08/01 A3032

TAF

Not found

Frequencies

Unicom 123.00 MHz CTAF/UNICOM
Ground 121.10 MHz GND
Approach 125.30 MHz SAVANNAH APP/DEP
Clearance 121.10 MHz CLNC DEL
Tower 118.97 MHz TWR
Warning: Do not use this data for real-world aviation or navigation. No guarantee of current accuracy is given.